createdAt,value
2024-01-29T00:04:34.060Z,-3.27
2024-01-29T00:05:08.186Z,-3.25
2024-01-29T00:05:42.506Z,-3.23
2024-01-29T00:06:16.003Z,-3.22
2024-01-29T00:06:50.324Z,-3.25
2024-01-29T00:07:24.283Z,-3.23
2024-01-29T00:08:15.354Z,-3.24
2024-01-29T00:08:48.883Z,-3.32
2024-01-29T00:09:23.397Z,-3.31
2024-01-29T00:09:57.340Z,-3.32
2024-01-29T00:10:31.697Z,-3.34
2024-01-29T00:11:07.671Z,-3.32
2024-01-29T00:11:56.703Z,-3.24
2024-01-29T00:12:32.084Z,-3.28
2024-01-29T00:13:08.678Z,-3.29
2024-01-29T00:13:46.267Z,-3.25
2024-01-29T00:14:21.902Z,-3.25
2024-01-29T00:15:34.104Z,-3.24
2024-01-29T00:16:08.230Z,-3.27
2024-01-29T00:16:42.079Z,-3.29
2024-01-29T00:17:15.916Z,-3.27
2024-01-29T00:17:49.981Z,-3.27
2024-01-29T00:18:23.716Z,-3.26
2024-01-29T00:19:16.081Z,-3.28
2024-01-29T00:19:49.875Z,-3.26
2024-01-29T00:20:23.830Z,-3.22
2024-01-29T00:20:59.309Z,-3.27
2024-01-29T00:21:33.386Z,-3.27
2024-01-29T00:22:07.581Z,-3.23
2024-01-29T00:22:55.378Z,-3.23
2024-01-29T00:23:29.493Z,-3.25
2024-01-29T00:24:03.583Z,-3.26
2024-01-29T00:24:38.680Z,-3.26
2024-01-29T00:25:14.044Z,-3.26
2024-01-29T00:25:48.492Z,-3.24
2024-01-29T00:26:35.280Z,-3.26
2024-01-29T00:27:10.277Z,-3.22
2024-01-29T00:27:44.547Z,-3.20
2024-01-29T00:28:18.151Z,-3.16
2024-01-29T00:28:51.955Z,-3.20
2024-01-29T00:29:26.361Z,-3.23
2024-01-29T00:30:15.666Z,-3.14
2024-01-29T00:30:49.471Z,-3.17
2024-01-29T00:31:24.810Z,-3.16
2024-01-29T00:31:59.916Z,-3.16
2024-01-29T00:32:33.919Z,-3.14
2024-01-29T00:33:07.766Z,-3.14
2024-01-29T00:33:55.455Z,-3.02
2024-01-29T00:34:29.756Z,-3.10
2024-01-29T00:35:04.511Z,-3.12
2024-01-29T00:35:38.941Z,-3.10
2024-01-29T00:36:12.792Z,-3.08
2024-01-29T00:36:46.429Z,-3.07
2024-01-29T00:37:35.450Z,-3.01
2024-01-29T00:38:09.303Z,-3.02
2024-01-29T00:38:43.378Z,-3.06
2024-01-29T00:39:16.906Z,-3.09
2024-01-29T00:39:52.470Z,-3.17
2024-01-29T00:40:26.713Z,-3.16
2024-01-29T00:41:16.885Z,-3.15
2024-01-29T00:41:53.914Z,-3.22
2024-01-29T00:42:27.780Z,-3.25
2024-01-29T00:43:02.798Z,-3.19
2024-01-29T00:43:36.565Z,-3.22
2024-01-29T00:44:10.352Z,-3.24
2024-01-29T00:44:57.941Z,-3.19
2024-01-29T00:45:31.938Z,-3.25
2024-01-29T00:46:06.587Z,-3.24
2024-01-29T00:46:41.391Z,-3.22
2024-01-29T00:47:15.519Z,-3.24
2024-01-29T00:47:49.544Z,-3.24
2024-01-29T00:48:37.946Z,-3.23
2024-01-29T00:49:12.207Z,-3.27
2024-01-29T00:49:46.497Z,-3.28
2024-01-29T00:50:21.065Z,-3.23
2024-01-29T00:50:54.522Z,-3.30
2024-01-29T00:51:28.103Z,-3.32
2024-01-29T00:52:19.894Z,-3.29
2024-01-29T00:52:53.566Z,-3.38
2024-01-29T00:53:27.917Z,-3.34
2024-01-29T00:54:01.317Z,-3.32
2024-01-29T00:54:35.127Z,-3.31
2024-01-29T00:55:09.177Z,-3.32
2024-01-29T00:56:00.774Z,-3.27
2024-01-29T00:56:34.591Z,-3.37
2024-01-29T00:57:08.799Z,-3.40
2024-01-29T00:57:42.675Z,-3.35
2024-01-29T00:58:16.748Z,-3.45
2024-01-29T00:58:51.846Z,-3.42
2024-01-29T01:10:35.801Z,-3.19
2024-01-29T01:11:10.319Z,-3.21
2024-01-29T01:11:44.439Z,-3.23
2024-01-29T01:12:17.833Z,-3.18
2024-01-29T01:12:51.466Z,-3.20
2024-01-29T01:13:25.818Z,-3.24
2024-01-29T01:14:13.036Z,-3.20
2024-01-29T01:14:47.030Z,-3.30
2024-01-29T01:15:21.849Z,-3.32
2024-01-29T01:15:56.084Z,-3.36
2024-01-29T01:16:29.867Z,-3.36
2024-01-29T01:17:03.577Z,-3.38
2024-01-29T01:17:54.350Z,-3.39
2024-01-29T01:18:28.214Z,-3.47
2024-01-29T01:19:04.711Z,-3.52
2024-01-29T01:19:38.305Z,-3.50
2024-01-29T01:20:15.011Z,-3.50
2024-01-29T01:20:48.897Z,-3.55
2024-01-29T01:21:36.785Z,-3.47
2024-01-29T01:22:11.544Z,-3.50
2024-01-29T01:22:45.581Z,-3.49
2024-01-29T01:23:19.140Z,-3.47
2024-01-29T01:23:52.860Z,-3.47
2024-01-29T01:24:26.608Z,-3.47
2024-01-29T01:25:19.440Z,-3.44
2024-01-29T01:25:53.555Z,-3.43
2024-01-29T01:26:27.448Z,-3.43
2024-01-29T01:27:00.857Z,-3.48
2024-01-29T01:27:34.691Z,-3.51
2024-01-29T01:28:10.406Z,-3.52
2024-01-29T01:28:57.430Z,-3.50
2024-01-29T01:29:31.400Z,-3.58
2024-01-29T01:30:08.235Z,-3.61
2024-01-29T01:30:45.326Z,-3.54
2024-01-29T01:31:21.813Z,-3.55
2024-01-29T01:32:01.340Z,-3.54
2024-01-29T01:47:18.724Z,-3.34
2024-01-29T01:47:52.673Z,-3.39
2024-01-29T01:48:27.491Z,-3.34
2024-01-29T01:49:01.945Z,-3.31
2024-01-29T01:49:36.273Z,-3.34
2024-01-29T01:50:11.357Z,-3.37
2024-01-29T01:50:59.028Z,-3.33
2024-01-29T01:51:33.328Z,-3.39
2024-01-29T01:52:08.257Z,-3.36
2024-01-29T01:52:42.173Z,-3.38
2024-01-29T01:53:16.054Z,-3.37
2024-01-29T01:53:56.125Z,-3.36
2024-01-29T01:54:41.439Z,-3.35
2024-01-29T01:55:15.763Z,-3.37
2024-01-29T01:55:49.808Z,-3.39
2024-01-29T01:56:24.247Z,-3.35
2024-01-29T01:56:59.570Z,-3.34
2024-01-29T01:57:34.266Z,-3.36
2024-01-29T01:58:21.536Z,-3.39
2024-01-29T01:58:58.621Z,-3.41
2024-01-29T01:59:37.168Z,-3.44
2024-01-29T02:00:12.936Z,-3.40
2024-01-29T02:00:47.622Z,-3.43
2024-01-29T02:05:35.171Z,-3.39
2024-01-29T02:06:09.085Z,-3.47
2024-01-29T02:06:43.007Z,-3.46
2024-01-29T02:07:16.703Z,-3.47
2024-01-29T02:07:50.597Z,-3.48
2024-01-29T02:08:24.975Z,-3.47
2024-01-29T02:09:16.530Z,-3.39
2024-01-29T02:09:51.075Z,-3.37
2024-01-29T02:10:25.558Z,-3.42
2024-01-29T02:11:02.125Z,-3.41
2024-01-29T02:11:35.985Z,-3.24
2024-01-29T02:12:10.318Z,-3.32
2024-01-29T02:12:57.527Z,-3.39
2024-01-29T02:13:32.566Z,-3.39
2024-01-29T02:14:06.747Z,-3.31
2024-01-29T02:14:40.263Z,-3.39
2024-01-29T02:15:13.748Z,-3.48
2024-01-29T02:15:47.483Z,-3.55
2024-01-29T02:16:35.106Z,-3.48
2024-01-29T02:17:08.834Z,-3.54
2024-01-29T02:17:42.246Z,-3.51
2024-01-29T02:18:16.349Z,-3.52
2024-01-29T02:18:50.185Z,-3.54
2024-01-29T02:19:24.477Z,-3.49
2024-01-29T02:20:14.822Z,-3.47
2024-01-29T02:20:49.296Z,-3.52
2024-01-29T02:21:24.162Z,-3.52
2024-01-29T02:21:58.789Z,-3.50
2024-01-29T02:22:32.784Z,-3.52
2024-01-29T02:23:06.480Z,-3.49
2024-01-29T02:23:56.867Z,-3.46
2024-01-29T02:24:32.270Z,-3.48
2024-01-29T02:25:06.216Z,-3.48
2024-01-29T02:25:40.146Z,-3.47
2024-01-29T02:26:15.229Z,-3.48
2024-01-29T02:26:49.358Z,-3.50
2024-01-29T02:27:38.931Z,-3.44
2024-01-29T02:28:12.833Z,-3.48
2024-01-29T02:28:46.556Z,-3.49
2024-01-29T02:29:20.530Z,-3.49
2024-01-29T02:29:54.888Z,-3.51
2024-01-29T02:30:29.031Z,-3.49
2024-01-29T02:31:14.865Z,-3.47
2024-01-29T02:31:50.080Z,-3.48
2024-01-29T02:32:23.642Z,-3.45
2024-01-29T02:32:58.673Z,-3.40
2024-01-29T02:33:32.906Z,-3.43
2024-01-29T02:34:07.191Z,-3.41
2024-01-29T02:34:57.525Z,-3.36
2024-01-29T02:35:31.870Z,-3.43
2024-01-29T02:36:06.815Z,-3.42
2024-01-29T02:36:45.887Z,-3.44
2024-01-29T02:37:21.129Z,-3.42
2024-01-29T02:37:56.070Z,-3.40
2024-01-29T02:49:33.836Z,-3.35
2024-01-29T02:50:08.734Z,-3.50
2024-01-29T02:50:42.786Z,-3.51
2024-01-29T02:51:16.867Z,-3.55
2024-01-29T02:51:50.805Z,-3.55
2024-01-29T02:52:24.284Z,-3.57
2024-01-29T02:53:16.098Z,-3.56
2024-01-29T02:53:50.115Z,-3.58
2024-01-29T02:54:24.435Z,-3.46
2024-01-29T02:54:59.038Z,-3.50
2024-01-29T02:55:33.226Z,-3.56
2024-01-29T02:56:07.906Z,-3.60
2024-01-29T02:56:57.430Z,-3.50
2024-01-29T02:57:32.080Z,-3.62
2024-01-29T02:58:06.191Z,-3.61
2024-01-29T02:58:39.820Z,-3.66
2024-01-29T02:59:13.721Z,-3.63
2024-01-29T02:59:47.803Z,-3.62
2024-01-29T03:03:42.890Z,-3.65
2024-01-29T03:04:18.784Z,-3.61
2024-01-29T03:05:19.535Z,-3.59
2024-01-29T03:05:54.015Z,-3.64
2024-01-29T03:06:27.983Z,-3.61
2024-01-29T03:07:02.750Z,-3.59
2024-01-29T03:07:38.522Z,-3.60
2024-01-29T03:08:15.745Z,-3.54
2024-01-29T03:08:59.493Z,-3.48
2024-01-29T03:09:33.475Z,-3.49
2024-01-29T03:10:07.560Z,-3.51
2024-01-29T03:10:41.345Z,-3.51
2024-01-29T03:11:15.259Z,-3.40
2024-01-29T03:11:49.459Z,-3.29
2024-01-29T03:12:40.822Z,-3.37
2024-01-29T03:13:15.415Z,-3.48
2024-01-29T03:13:49.825Z,-3.51
2024-01-29T03:14:24.001Z,-3.56
2024-01-29T03:14:57.794Z,-3.53
2024-01-29T03:15:31.405Z,-3.48
2024-01-29T03:16:22.698Z,-3.46
2024-01-29T03:16:56.887Z,-3.42
2024-01-29T03:17:31.178Z,-3.32
2024-01-29T03:18:07.914Z,-3.33
2024-01-29T03:18:42.794Z,-3.34
2024-01-29T03:19:16.476Z,-3.26
2024-01-29T03:20:05.664Z,-3.19
2024-01-29T03:20:40.220Z,-3.18
2024-01-29T03:21:15.311Z,-3.20
2024-01-29T03:21:48.997Z,-3.24
2024-01-29T03:22:22.703Z,-3.27
2024-01-29T03:22:57.123Z,-3.28
2024-01-29T03:23:44.091Z,-3.27
2024-01-29T03:24:18.204Z,-3.23
2024-01-29T03:24:52.047Z,-3.19
2024-01-29T03:25:25.777Z,-3.21
2024-01-29T03:25:59.996Z,-3.23
2024-01-29T03:26:33.891Z,-3.24
2024-01-29T03:27:25.866Z,-3.20
2024-01-29T03:27:59.854Z,-3.21
2024-01-29T03:28:33.772Z,-3.20
2024-01-29T03:29:07.686Z,-3.24
2024-01-29T03:29:41.328Z,-3.25
2024-01-29T03:30:15.530Z,-3.24
2024-01-29T03:31:01.994Z,-3.13
2024-01-29T03:31:36.193Z,-3.20
2024-01-29T03:32:11.150Z,-3.15
2024-01-29T03:32:44.825Z,-3.07
2024-01-29T03:33:21.038Z,-3.09
2024-01-29T03:33:55.583Z,-3.16
2024-01-29T03:34:43.762Z,-3.13
2024-01-29T03:35:18.453Z,-3.19
2024-01-29T03:35:52.180Z,-3.20
2024-01-29T03:36:25.888Z,-3.20
2024-01-29T03:37:00.431Z,-3.21
2024-01-29T03:37:34.377Z,-3.21
2024-01-29T03:38:26.018Z,-3.05
2024-01-29T03:39:05.063Z,-3.09
2024-01-29T03:39:41.331Z,-3.19
2024-01-29T03:40:15.692Z,-3.13
2024-01-29T03:40:49.622Z,-3.17
2024-01-29T03:41:23.177Z,-3.18
2024-01-29T03:42:06.301Z,-3.18
2024-01-29T03:42:40.208Z,-3.24
2024-01-29T03:43:14.198Z,-3.20
2024-01-29T03:43:48.400Z,-3.18
2024-01-29T03:44:22.158Z,-3.22
2024-01-29T03:44:55.902Z,-3.24
2024-01-29T03:45:48.324Z,-3.24
2024-01-29T03:46:25.074Z,-3.33
2024-01-29T03:46:58.762Z,-3.33
2024-01-29T03:47:32.637Z,-3.34
2024-01-29T03:48:06.974Z,-3.34
2024-01-29T03:48:41.255Z,-3.35
2024-01-29T03:49:26.827Z,-3.34
2024-01-29T03:50:02.047Z,-3.39
2024-01-29T03:50:35.999Z,-3.40
2024-01-29T03:51:09.585Z,-3.39
2024-01-29T03:51:43.396Z,-3.39
2024-01-29T03:52:16.898Z,-3.39
2024-01-29T03:53:09.930Z,-3.38
2024-01-29T03:53:45.090Z,-3.43
2024-01-29T03:54:18.819Z,-3.43
2024-01-29T03:54:53.965Z,-3.43
2024-01-29T03:55:29.267Z,-3.43
2024-01-29T03:56:05.037Z,-3.42
2024-01-29T03:56:50.144Z,-3.42
2024-01-29T03:57:24.059Z,-3.45
2024-01-29T03:57:58.602Z,-3.45
2024-01-29T03:58:33.495Z,-3.42
2024-01-29T03:59:12.737Z,-3.43
2024-01-29T03:59:46.605Z,-3.42
2024-01-29T04:00:32.026Z,-3.42
2024-01-29T04:01:06.118Z,-3.48
2024-01-29T04:01:42.881Z,-3.48
2024-01-29T04:02:16.672Z,-3.50
2024-01-29T04:02:51.578Z,-3.50
2024-01-29T04:03:26.509Z,-3.53
2024-01-29T04:04:13.628Z,-3.48
2024-01-29T04:04:49.964Z,-3.56
2024-01-29T04:05:24.431Z,-3.53
2024-01-29T04:05:59.069Z,-3.52
2024-01-29T04:06:33.163Z,-3.54
2024-01-29T04:07:07.038Z,-3.54
2024-01-29T04:07:57.758Z,-3.46
2024-01-29T04:08:31.830Z,-3.52
2024-01-29T04:09:05.885Z,-3.54
2024-01-29T04:09:40.319Z,-3.58
2024-01-29T04:10:15.102Z,-3.64
2024-01-29T04:10:49.247Z,-3.70
2024-01-29T04:11:35.938Z,-3.69
2024-01-29T04:12:11.907Z,-3.73
2024-01-29T04:12:46.675Z,-3.78
2024-01-29T04:13:22.446Z,-3.80
2024-01-29T04:13:58.849Z,-3.86
2024-01-29T04:14:35.210Z,-3.90
2024-01-29T04:15:17.765Z,-3.86
2024-01-29T04:15:51.680Z,-3.96
2024-01-29T04:16:26.336Z,-3.97
2024-01-29T04:17:00.400Z,-3.98
2024-01-29T04:17:34.347Z,-3.95
2024-01-29T04:18:08.215Z,-3.97
2024-01-29T04:18:59.240Z,-3.94
2024-01-29T04:19:33.710Z,-3.96
2024-01-29T04:20:08.691Z,-3.94
2024-01-29T04:20:42.388Z,-3.94
2024-01-29T04:21:16.799Z,-3.95
2024-01-29T04:21:51.106Z,-3.94
2024-01-29T04:22:38.227Z,-3.92
2024-01-29T04:23:12.273Z,-3.94
2024-01-29T04:23:46.280Z,-3.91
2024-01-29T04:24:20.611Z,-3.79
2024-01-29T04:24:54.378Z,-3.71
2024-01-29T04:25:28.270Z,-3.73
2024-01-29T04:26:19.773Z,-3.76
2024-01-29T04:26:53.542Z,-3.81
2024-01-29T04:27:27.237Z,-3.81
2024-01-29T04:28:01.583Z,-3.85
2024-01-29T04:28:35.336Z,-3.85
2024-01-29T04:29:12.510Z,-3.85
2024-01-29T04:30:03.120Z,-3.81
2024-01-29T04:30:37.384Z,-3.84
2024-01-29T04:31:11.199Z,-3.84
2024-01-29T04:31:44.976Z,-3.85
2024-01-29T04:32:18.640Z,-3.83
2024-01-29T04:32:52.074Z,-3.82
2024-01-29T04:33:40.531Z,-3.85
2024-01-29T04:34:14.542Z,-3.92
2024-01-29T04:34:49.397Z,-3.98
2024-01-29T04:35:23.842Z,-3.96
2024-01-29T04:35:57.825Z,-3.96
2024-01-29T04:36:31.621Z,-3.99
2024-01-29T04:37:18.852Z,-3.98
2024-01-29T04:37:52.613Z,-4.02
2024-01-29T04:38:26.858Z,-4.01
2024-01-29T04:39:00.998Z,-3.97
2024-01-29T04:39:34.941Z,-4.03
2024-01-29T04:40:10.003Z,-4.03
2024-01-29T04:41:00.618Z,-3.98
2024-01-29T04:41:34.011Z,-4.00
2024-01-29T04:42:09.155Z,-3.98
2024-01-29T04:42:43.734Z,-3.95
2024-01-29T04:43:17.823Z,-3.97
2024-01-29T04:43:51.585Z,-3.93
2024-01-29T04:44:39.706Z,-3.89
2024-01-29T04:45:14.850Z,-3.91
2024-01-29T04:45:49.500Z,-3.91
2024-01-29T04:46:25.756Z,-3.95
2024-01-29T04:47:00.878Z,-3.95
2024-01-29T04:47:36.328Z,-3.96
2024-01-29T04:55:36.769Z,-3.87
2024-01-29T04:56:11.634Z,-3.93
2024-01-29T04:56:45.572Z,-3.96
2024-01-29T04:57:22.111Z,-3.97
2024-01-29T04:57:56.274Z,-3.97
2024-01-29T04:58:30.508Z,-3.97
2024-01-29T04:59:19.883Z,-3.96
2024-01-29T04:59:53.832Z,-4.10
2024-01-29T05:00:28.300Z,-3.98
2024-01-29T05:01:03.132Z,-4.03
2024-01-29T05:01:37.576Z,-4.05
2024-01-29T05:02:12.398Z,-4.08
2024-01-29T05:02:58.793Z,-4.13
2024-01-29T05:03:32.975Z,-4.19
2024-01-29T05:04:07.031Z,-4.23
2024-01-29T05:04:42.003Z,-4.30
2024-01-29T05:05:16.756Z,-4.28
2024-01-29T05:05:50.604Z,-4.32
2024-01-29T05:06:40.709Z,-4.32
2024-01-29T05:07:15.755Z,-4.32
2024-01-29T05:07:50.242Z,-4.30
2024-01-29T05:08:24.827Z,-4.31
2024-01-29T05:08:59.082Z,-4.29
2024-01-29T05:09:33.020Z,-4.31
2024-01-29T05:10:21.821Z,-4.25
2024-01-29T05:10:55.331Z,-4.27
2024-01-29T05:11:29.199Z,-4.28
2024-01-29T05:12:04.231Z,-4.26
2024-01-29T05:12:38.358Z,-4.22
2024-01-29T05:13:12.334Z,-4.22
2024-01-29T05:13:59.642Z,-4.21
2024-01-29T05:14:33.199Z,-4.24
2024-01-29T05:15:07.529Z,-4.23
2024-01-29T05:15:41.720Z,-4.24
2024-01-29T05:16:17.405Z,-4.24
2024-01-29T05:16:53.339Z,-4.24
2024-01-29T05:17:40.519Z,-4.19
2024-01-29T05:18:14.067Z,-4.23
2024-01-29T05:18:49.735Z,-4.25
2024-01-29T05:19:23.149Z,-4.25
2024-01-29T05:19:57.054Z,-4.29
2024-01-29T05:20:31.484Z,-4.31
2024-01-29T05:21:21.389Z,-4.31
2024-01-29T05:21:55.954Z,-4.35
2024-01-29T05:22:30.875Z,-4.39
2024-01-29T05:23:04.642Z,-4.39
2024-01-29T05:23:38.816Z,-4.40
2024-01-29T05:24:12.708Z,-4.42
2024-01-29T05:25:03.710Z,-4.44
2024-01-29T05:25:37.757Z,-4.41
2024-01-29T05:26:11.434Z,-4.33
2024-01-29T05:26:45.279Z,-4.34
2024-01-29T05:27:19.233Z,-4.38
2024-01-29T05:27:53.061Z,-4.40
2024-01-29T05:28:45.183Z,-4.37
2024-01-29T05:29:18.774Z,-4.41
2024-01-29T05:29:52.415Z,-4.42
2024-01-29T05:30:25.905Z,-4.43
2024-01-29T05:31:00.038Z,-4.44
2024-01-29T05:31:34.139Z,-4.45
2024-01-29T05:32:26.404Z,-4.46
2024-01-29T05:32:59.914Z,-4.50
2024-01-29T05:33:34.409Z,-4.49
2024-01-29T05:34:08.848Z,-4.51
2024-01-29T05:34:43.030Z,-4.51
2024-01-29T05:35:17.252Z,-4.44
2024-01-29T05:36:08.712Z,-4.43
2024-01-29T05:36:43.028Z,-4.47
2024-01-29T05:37:16.765Z,-4.52
2024-01-29T05:37:50.335Z,-4.55
2024-01-29T05:38:24.277Z,-4.57
2024-01-29T05:38:57.811Z,-4.63
2024-01-29T05:39:45.574Z,-4.59
2024-01-29T05:40:20.015Z,-4.63
2024-01-29T05:40:54.410Z,-4.63
2024-01-29T05:41:29.566Z,-4.62
2024-01-29T05:42:05.227Z,-4.65
2024-01-29T05:42:41.307Z,-4.64
2024-01-29T05:43:27.554Z,-4.57
2024-01-29T05:44:00.922Z,-4.62
2024-01-29T05:44:34.386Z,-4.62
2024-01-29T05:45:08.100Z,-4.60
2024-01-29T05:45:43.994Z,-4.61
2024-01-29T05:46:17.725Z,-4.62
2024-01-29T05:47:08.240Z,-4.58
2024-01-29T05:47:42.155Z,-4.52
2024-01-29T05:48:16.198Z,-4.52
2024-01-29T05:48:50.116Z,-4.50
2024-01-29T05:49:24.360Z,-4.52
2024-01-29T05:49:58.235Z,-4.50
2024-01-29T05:50:49.339Z,-4.47
2024-01-29T05:51:23.716Z,-4.46
2024-01-29T05:51:58.888Z,-4.45
2024-01-29T05:52:33.486Z,-4.46
2024-01-29T05:53:07.336Z,-4.46
2024-01-29T05:53:41.229Z,-4.45
2024-01-29T05:54:32.686Z,-4.38
2024-01-29T05:55:06.738Z,-4.44
2024-01-29T05:55:40.988Z,-4.48
2024-01-29T05:56:14.566Z,-4.47
2024-01-29T05:56:50.992Z,-4.43
2024-01-29T05:57:25.348Z,-4.46
2024-01-29T05:58:09.946Z,-4.48
2024-01-29T05:58:46.489Z,-4.52
2024-01-29T05:59:20.289Z,-4.53
2024-01-29T05:59:54.064Z,-4.52
2024-01-29T06:00:28.017Z,-4.54
2024-01-29T06:01:02.040Z,-4.51
2024-01-29T06:01:55.798Z,-4.47
2024-01-29T06:02:30.602Z,-4.48
2024-01-29T06:03:04.371Z,-4.46
2024-01-29T06:03:38.088Z,-4.45
2024-01-29T06:04:11.865Z,-4.44
2024-01-29T06:04:46.157Z,-4.41
2024-01-29T06:05:33.312Z,-4.34
2024-01-29T06:06:07.755Z,-4.37
2024-01-29T06:06:43.012Z,-4.36
2024-01-29T06:07:16.886Z,-4.31
2024-01-29T06:07:52.973Z,-4.27
2024-01-29T06:08:28.200Z,-4.32
2024-01-29T06:09:16.296Z,-4.35
2024-01-29T06:09:50.020Z,-4.38
2024-01-29T06:10:24.266Z,-4.41
2024-01-29T06:10:58.134Z,-4.38
2024-01-29T06:11:32.935Z,-4.36
2024-01-29T06:12:06.856Z,-4.39
2024-01-29T06:12:54.931Z,-4.28
2024-01-29T06:13:30.725Z,-4.37
2024-01-29T06:14:04.471Z,-4.40
2024-01-29T06:14:38.401Z,-4.41
2024-01-29T06:15:11.942Z,-4.32
2024-01-29T06:15:46.198Z,-4.36
2024-01-29T06:16:34.131Z,-4.34
2024-01-29T06:17:07.917Z,-4.34
2024-01-29T06:17:42.486Z,-4.34
2024-01-29T06:18:16.869Z,-4.38
2024-01-29T06:18:51.458Z,-4.29
2024-01-29T06:19:26.846Z,-4.29
2024-01-29T06:20:18.482Z,-4.24
2024-01-29T06:20:53.913Z,-4.25
2024-01-29T06:21:27.945Z,-4.23
2024-01-29T06:22:02.920Z,-4.21
2024-01-29T06:22:36.724Z,-4.20
2024-01-29T06:23:11.371Z,-4.19
2024-01-29T06:38:26.383Z,-4.03
2024-01-29T06:39:00.793Z,-4.06
2024-01-29T06:39:36.891Z,-4.09
2024-01-29T06:40:10.898Z,-4.09
2024-01-29T06:40:44.769Z,-4.06
2024-01-29T06:41:21.181Z,-4.06
2024-01-29T06:42:10.901Z,-4.04
2024-01-29T06:42:44.806Z,-4.07
2024-01-29T06:43:18.496Z,-4.07
2024-01-29T06:43:52.674Z,-4.07
2024-01-29T06:44:26.448Z,-4.06
2024-01-29T06:44:59.993Z,-4.07
2024-01-29T06:45:52.576Z,-4.07
2024-01-29T06:46:27.111Z,-4.15
2024-01-29T06:47:01.133Z,-4.10
2024-01-29T06:47:35.178Z,-4.06
2024-01-29T06:48:09.894Z,-4.05
2024-01-29T06:48:43.771Z,-4.09
2024-01-29T06:49:32.321Z,-4.08
2024-01-29T06:50:06.202Z,-4.12
2024-01-29T06:50:42.968Z,-4.12
2024-01-29T06:51:17.623Z,-4.15
2024-01-29T06:51:51.736Z,-4.12
2024-01-29T06:52:25.601Z,-4.12
2024-01-29T06:53:11.937Z,-4.09
2024-01-29T06:53:45.725Z,-4.12
2024-01-29T06:54:20.067Z,-4.11
2024-01-29T06:54:54.164Z,-4.11
2024-01-29T06:55:27.770Z,-4.13
2024-01-29T06:56:04.957Z,-4.12
2024-01-29T06:56:54.368Z,-4.05
2024-01-29T06:57:28.540Z,-4.05
2024-01-29T06:58:05.432Z,-4.03
2024-01-29T06:58:39.547Z,-4.03
2024-01-29T06:59:14.756Z,-4.01
2024-01-29T06:59:48.920Z,-3.98
2024-01-29T07:00:35.970Z,-3.92
2024-01-29T07:01:09.528Z,-3.91
2024-01-29T07:01:43.649Z,-3.89
2024-01-29T07:02:18.134Z,-3.87
2024-01-29T07:02:52.614Z,-3.86
2024-01-29T07:03:26.734Z,-3.84
2024-01-29T07:04:17.353Z,-3.79
2024-01-29T07:04:50.942Z,-3.75
2024-01-29T07:05:24.856Z,-3.74
2024-01-29T07:05:59.015Z,-3.68
2024-01-29T07:06:33.004Z,-3.65
2024-01-29T07:07:07.698Z,-3.62
2024-01-29T07:07:58.681Z,-3.58
2024-01-29T07:08:33.020Z,-3.54
2024-01-29T07:09:06.758Z,-3.51
2024-01-29T07:09:41.714Z,-3.46
2024-01-29T07:10:16.358Z,-3.40
2024-01-29T07:10:50.420Z,-3.34
2024-01-29T07:11:37.655Z,-3.30
2024-01-29T07:12:11.640Z,-3.26
2024-01-29T07:12:45.202Z,-3.22
2024-01-29T07:13:20.683Z,-3.18
2024-01-29T07:13:54.253Z,-3.13
2024-01-29T07:14:28.000Z,-3.08
2024-01-29T07:15:16.951Z,-2.97
2024-01-29T07:15:52.513Z,-2.95
2024-01-29T07:16:26.362Z,-2.94
2024-01-29T07:17:00.175Z,-2.91
2024-01-29T07:17:33.891Z,-2.89
2024-01-29T07:18:07.715Z,-2.91
2024-01-29T07:18:56.687Z,-2.78
2024-01-29T07:19:35.219Z,-2.74
2024-01-29T07:20:10.498Z,-2.67
2024-01-29T07:20:46.700Z,-2.60
2024-01-29T07:21:20.665Z,-2.56
2024-01-29T07:22:38.915Z,-2.47
2024-01-29T07:23:13.004Z,-2.46
2024-01-29T07:23:46.679Z,-2.41
2024-01-29T07:24:20.309Z,-2.36
2024-01-29T07:24:54.089Z,-2.32
2024-01-29T07:25:28.245Z,-2.28
2024-01-29T07:26:11.820Z,-2.21
2024-01-29T07:26:46.160Z,-2.17
2024-01-29T07:27:22.812Z,-2.14
2024-01-29T07:27:58.191Z,-2.14
2024-01-29T07:28:33.365Z,-2.12
2024-01-29T07:29:07.180Z,-2.05
2024-01-29T07:29:53.670Z,-1.96
2024-01-29T07:30:28.027Z,-1.92
2024-01-29T07:31:02.053Z,-1.88
2024-01-29T07:31:35.617Z,-1.80
2024-01-29T07:32:09.283Z,-1.74
2024-01-29T07:32:44.141Z,-1.73
2024-01-29T07:51:46.255Z,-0.93
2024-01-29T07:52:20.472Z,-0.86
2024-01-29T07:52:54.160Z,-0.78
2024-01-29T07:53:27.962Z,-0.73
2024-01-29T07:54:01.412Z,-0.67
2024-01-29T07:54:36.522Z,-0.61
2024-01-29T07:55:24.737Z,-0.52
2024-01-29T07:55:58.427Z,-0.45
2024-01-29T07:56:32.228Z,-0.35
2024-01-29T07:57:05.980Z,-0.28
2024-01-29T07:57:39.651Z,-0.22
2024-01-29T07:58:13.302Z,-0.18
2024-01-29T07:59:01.625Z,-0.09
2024-01-29T07:59:36.484Z,-0.04
2024-01-29T08:00:11.349Z,0.08
2024-01-29T08:00:47.720Z,0.17
2024-01-29T08:01:21.895Z,0.26
2024-01-29T08:01:56.243Z,0.31
2024-01-29T08:02:43.755Z,0.40
2024-01-29T08:03:17.598Z,0.44
2024-01-29T08:03:51.613Z,0.48
2024-01-29T08:04:26.039Z,0.49
2024-01-29T08:05:01.669Z,0.48
2024-01-29T08:05:37.618Z,0.44
2024-01-29T08:10:06.394Z,0.54
2024-01-29T08:10:41.778Z,0.55
2024-01-29T08:11:16.176Z,0.57
2024-01-29T08:11:51.528Z,0.59
2024-01-29T08:12:25.344Z,0.65
2024-01-29T08:12:59.085Z,0.69
2024-01-29T08:13:42.617Z,0.77
2024-01-29T08:14:16.167Z,0.84
2024-01-29T08:14:50.706Z,0.93
2024-01-29T08:15:25.215Z,1.01
2024-01-29T08:16:00.764Z,1.08
2024-01-29T08:16:34.648Z,1.15
2024-01-29T08:17:23.812Z,1.24
2024-01-29T08:17:57.356Z,1.30
2024-01-29T08:18:31.532Z,1.37
2024-01-29T08:19:05.709Z,1.44
2024-01-29T08:19:40.033Z,1.49
2024-01-29T08:20:15.519Z,1.55
2024-01-29T08:21:05.413Z,1.71
2024-01-29T08:21:39.349Z,1.80
2024-01-29T08:22:13.188Z,1.86
2024-01-29T08:22:46.818Z,1.93
2024-01-29T08:23:20.490Z,2.00
2024-01-29T08:23:54.665Z,2.05
2024-01-29T08:24:44.954Z,2.23
2024-01-29T08:25:23.633Z,2.31
2024-01-29T08:25:58.785Z,2.40
2024-01-29T08:26:33.947Z,2.47
2024-01-29T08:27:07.759Z,2.54
2024-01-29T08:28:20.704Z,2.71
2024-01-29T08:28:56.346Z,2.75
2024-01-29T08:29:30.835Z,2.83
2024-01-29T08:30:05.559Z,2.92
2024-01-29T08:30:40.236Z,2.98
2024-01-29T08:31:14.946Z,3.03
2024-01-29T08:32:05.838Z,3.14
2024-01-29T08:32:39.260Z,3.16
2024-01-29T08:33:14.144Z,3.20
2024-01-29T08:33:47.889Z,3.21
2024-01-29T08:34:21.566Z,3.21
2024-01-29T08:34:56.055Z,3.19
2024-01-29T08:42:59.347Z,3.96
2024-01-29T08:43:33.246Z,4.03
2024-01-29T08:44:07.816Z,4.09
2024-01-29T08:44:41.548Z,4.14
2024-01-29T08:45:20.845Z,4.16
2024-01-29T08:45:57.132Z,4.25
2024-01-29T08:46:40.109Z,4.33
2024-01-29T08:47:14.149Z,4.45
2024-01-29T08:47:47.940Z,4.55
2024-01-29T08:48:21.768Z,4.55
2024-01-29T08:48:55.282Z,4.64
2024-01-29T08:49:32.161Z,4.67
2024-01-29T08:50:21.984Z,4.73
2024-01-29T08:50:55.987Z,4.76
2024-01-29T08:51:29.787Z,4.78
2024-01-29T08:52:03.556Z,4.77
2024-01-29T08:52:40.486Z,4.77
2024-01-29T08:53:18.703Z,4.79
2024-01-29T08:54:02.298Z,4.83
2024-01-29T08:54:35.971Z,4.81
2024-01-29T08:55:10.278Z,4.87
2024-01-29T08:55:44.723Z,4.91
2024-01-29T08:56:19.502Z,4.89
2024-01-29T08:56:53.263Z,4.87
2024-01-29T08:57:43.606Z,4.91
2024-01-29T08:58:18.016Z,4.94
2024-01-29T08:58:55.220Z,5.00
2024-01-29T08:59:33.271Z,5.02
2024-01-29T09:00:08.910Z,5.06
2024-01-29T09:00:44.119Z,5.13
2024-01-29T09:01:30.761Z,5.25
2024-01-29T09:02:04.919Z,5.27
2024-01-29T09:02:39.112Z,5.29
2024-01-29T09:03:13.083Z,5.30
2024-01-29T09:03:47.601Z,5.35
2024-01-29T09:04:21.647Z,5.39
2024-01-29T09:05:13.890Z,5.50
2024-01-29T09:05:49.898Z,5.54
2024-01-29T09:06:24.661Z,5.55
2024-01-29T09:07:01.833Z,5.61
2024-01-29T09:07:37.289Z,5.66
2024-01-29T09:19:40.531Z,6.73
2024-01-29T09:20:15.211Z,6.76
2024-01-29T09:20:49.437Z,6.80
2024-01-29T09:21:23.424Z,6.84
2024-01-29T09:21:57.330Z,6.88
2024-01-29T09:22:31.263Z,6.91
2024-01-29T09:23:23.011Z,6.96
2024-01-29T09:23:56.496Z,6.94
2024-01-29T09:24:32.147Z,6.96
2024-01-29T09:25:08.309Z,7.00
2024-01-29T09:25:43.181Z,7.03
2024-01-29T09:26:17.073Z,7.04
2024-01-29T09:27:04.233Z,7.08
2024-01-29T09:27:40.038Z,7.11
2024-01-29T09:28:13.826Z,7.15
2024-01-29T09:28:47.432Z,7.19
2024-01-29T09:29:21.013Z,7.20
2024-01-29T09:29:55.200Z,7.18
2024-01-29T09:30:45.010Z,7.24
2024-01-29T09:31:22.808Z,7.21
2024-01-29T09:31:56.555Z,7.28
2024-01-29T09:32:30.026Z,7.30
2024-01-29T09:33:14.753Z,7.33
2024-01-29T09:34:22.432Z,7.42
2024-01-29T09:34:56.653Z,7.42
2024-01-29T09:35:31.205Z,7.41
2024-01-29T09:36:08.553Z,7.45
2024-01-29T09:36:43.212Z,7.48
2024-01-29T09:37:21.170Z,7.48
2024-01-29T09:38:09.015Z,7.53
2024-01-29T09:38:43.166Z,7.52
2024-01-29T09:39:17.374Z,7.61
2024-01-29T09:39:52.152Z,7.66
2024-01-29T09:40:26.521Z,7.68
2024-01-29T09:41:00.659Z,7.76
2024-01-29T09:41:44.428Z,7.88
2024-01-29T09:42:21.633Z,7.93
2024-01-29T09:42:59.303Z,8.04
2024-01-29T09:43:35.433Z,8.11
2024-01-29T09:44:11.186Z,8.18
2024-01-29T09:45:25.197Z,8.31
2024-01-29T09:45:58.988Z,8.31
2024-01-29T09:46:33.578Z,8.36
2024-01-29T09:47:08.043Z,8.39
2024-01-29T09:47:42.452Z,8.44
2024-01-29T09:48:17.374Z,8.47
2024-01-29T09:49:04.047Z,8.52
2024-01-29T09:49:39.257Z,8.53
2024-01-29T09:50:14.344Z,8.55